createdAt,value
2023-04-22T05:07:17.731Z,7.62
2023-04-22T05:14:29.213Z,7.89
2023-04-22T05:30:00.175Z,8.32
2023-04-22T05:43:47.263Z,8.61
2023-04-22T05:46:17.712Z,8.68
2023-04-22T05:48:45.972Z,8.65
2023-04-22T05:51:35.663Z,8.60
2023-04-22T05:54:03.126Z,8.65
2023-04-22T05:56:30.252Z,8.76
2023-04-22T05:58:57.230Z,8.89
2023-04-22T06:01:25.405Z,9.04
2023-04-22T06:03:57.955Z,9.09
2023-04-22T06:06:26.319Z,9.18
2023-04-22T06:08:53.433Z,9.28
2023-04-22T06:11:20.504Z,9.33
2023-04-22T06:13:47.607Z,9.39
2023-04-22T06:16:15.336Z,9.54
2023-04-22T06:18:43.806Z,9.66
2023-04-22T06:21:12.726Z,9.81
2023-04-22T06:23:40.242Z,9.95
2023-04-22T06:26:07.318Z,10.14
2023-04-22T06:28:36.169Z,10.25
2023-04-22T06:31:08.247Z,10.31
2023-04-22T06:33:36.031Z,10.31
2023-04-22T06:36:05.158Z,10.36
2023-04-22T06:38:32.804Z,10.49
2023-04-22T06:41:14.479Z,10.62
2023-04-22T06:43:44.194Z,10.73
2023-04-22T06:46:47.017Z,10.89
2023-04-22T06:49:38.682Z,10.90
2023-04-22T06:52:23.989Z,10.99
2023-04-22T06:54:53.342Z,11.01
2023-04-22T06:57:20.614Z,11.06
2023-04-22T06:59:47.532Z,11.16
2023-04-22T07:02:15.375Z,11.26
2023-04-22T07:04:43.997Z,11.23
2023-04-22T07:07:11.510Z,11.11
2023-04-22T07:09:38.818Z,11.15
2023-04-22T07:12:06.202Z,11.34
2023-04-22T07:14:33.839Z,11.55
2023-04-22T07:17:00.973Z,11.71
2023-04-22T07:19:27.918Z,11.87
2023-04-22T07:21:54.830Z,12.05
2023-04-22T07:24:21.741Z,12.20
2023-04-22T07:26:48.689Z,12.30
2023-04-22T07:29:15.741Z,12.53
2023-04-22T07:31:42.970Z,12.61
2023-04-22T07:34:10.939Z,12.66
2023-04-22T07:36:38.046Z,12.68
2023-04-22T07:39:05.085Z,12.73
2023-04-22T07:41:32.327Z,12.81
2023-04-22T07:44:00.131Z,12.86
2023-04-22T07:46:27.082Z,13.02
2023-04-22T07:48:53.995Z,13.16
2023-04-22T07:51:21.064Z,13.31
2023-04-22T07:53:47.933Z,13.36
2023-04-22T07:56:14.920Z,13.46
2023-04-22T07:58:41.854Z,13.45
2023-04-22T08:01:08.762Z,13.51
2023-04-22T08:03:36.321Z,13.59
2023-04-22T08:06:03.537Z,13.66
2023-04-22T08:08:30.521Z,13.70
2023-04-22T08:10:57.481Z,13.73
2023-04-22T08:13:24.440Z,13.90
2023-04-22T08:15:51.488Z,14.03
2023-04-22T08:18:18.462Z,14.06
2023-04-22T08:20:47.268Z,14.14
2023-04-22T08:23:14.650Z,14.13
2023-04-22T08:25:42.036Z,14.16
2023-04-22T08:28:08.965Z,14.29
2023-04-22T08:30:35.950Z,14.17
2023-04-22T08:33:03.093Z,14.06
2023-04-22T08:35:30.374Z,13.98
2023-04-22T08:37:57.225Z,13.96
2023-04-22T08:40:24.150Z,14.01
2023-04-22T08:42:52.483Z,14.15
2023-04-22T08:45:20.394Z,14.27
2023-04-22T08:47:48.873Z,14.40
2023-04-22T08:50:16.035Z,14.54
2023-04-22T08:52:43.867Z,14.52
2023-04-22T08:55:10.983Z,14.67
2023-04-22T08:57:40.090Z,15.00
2023-04-22T09:00:09.170Z,15.28
2023-04-22T09:02:37.326Z,15.58
2023-04-22T09:05:06.663Z,15.71
2023-04-22T09:07:33.682Z,15.95
2023-04-22T09:10:00.588Z,16.03
2023-04-22T09:12:27.873Z,16.02
2023-04-22T09:14:56.532Z,16.20
2023-04-22T09:17:38.602Z,16.30
2023-04-22T09:20:08.007Z,16.37
2023-04-22T09:22:46.654Z,16.58
2023-04-22T09:25:17.468Z,16.79
2023-04-22T09:27:49.690Z,17.04
2023-04-22T09:30:19.453Z,17.07
2023-04-22T09:32:55.056Z,16.87
2023-04-22T09:35:38.446Z,16.91
2023-04-22T09:38:08.312Z,16.83
2023-04-22T09:40:37.051Z,17.12
2023-04-22T09:43:07.813Z,17.37
2023-04-22T09:45:36.999Z,17.24
2023-04-22T09:48:09.025Z,17.25
2023-04-22T09:50:37.374Z,17.25
2023-04-22T09:53:07.525Z,17.15
2023-04-22T09:55:38.014Z,17.23
2023-04-22T09:58:10.204Z,17.13
2023-04-22T10:00:49.456Z,16.85
2023-04-22T10:03:17.270Z,16.66
2023-04-22T10:05:46.034Z,16.46
2023-04-22T10:08:14.660Z,16.28
2023-04-22T10:10:42.726Z,16.25
2023-04-22T10:13:09.822Z,16.50
2023-04-22T10:15:41.595Z,16.78
2023-04-22T10:18:12.868Z,17.12
2023-04-22T10:20:42.894Z,17.30
2023-04-22T10:23:15.980Z,17.59
2023-04-22T10:25:42.968Z,17.73
2023-04-22T10:28:11.529Z,17.98
2023-04-22T10:30:39.882Z,18.31
2023-04-22T10:33:22.231Z,18.39
2023-04-22T10:36:15.747Z,18.42
2023-04-22T10:39:02.583Z,18.23
2023-04-22T10:41:31.786Z,17.70
2023-04-22T10:44:00.615Z,17.77
2023-04-22T10:46:30.810Z,17.92
2023-04-22T10:48:58.087Z,18.05
2023-04-22T10:51:40.895Z,18.00
2023-04-22T10:54:31.382Z,17.81
2023-04-22T10:57:09.618Z,17.52
2023-04-22T10:59:46.413Z,17.48
2023-04-22T11:02:16.684Z,17.76
2023-04-22T11:04:43.778Z,18.03
2023-04-22T11:07:32.055Z,18.38
2023-04-22T11:10:05.597Z,18.53
2023-04-22T11:12:35.817Z,18.58
2023-04-22T11:15:06.337Z,18.47
2023-04-22T11:17:34.053Z,18.59
2023-04-22T11:20:01.730Z,18.25
2023-04-22T11:22:28.849Z,18.32
2023-04-22T11:24:56.318Z,18.32
2023-04-22T11:27:27.032Z,18.00
2023-04-22T11:30:05.713Z,18.10
2023-04-22T11:32:32.850Z,17.94
2023-04-22T11:35:04.927Z,18.02
2023-04-22T11:37:31.910Z,17.47
2023-04-22T11:40:27.301Z,17.42
2023-04-22T11:42:49.592Z,17.45
2023-04-22T11:45:17.125Z,17.45
2023-04-22T11:47:46.330Z,17.38
2023-04-22T11:50:14.684Z,17.71
2023-04-22T11:52:46.218Z,17.92
2023-04-22T11:55:33.970Z,17.99
2023-04-22T11:58:07.403Z,17.73
2023-04-22T12:00:42.844Z,17.36
2023-04-22T12:03:15.205Z,17.37
2023-04-22T12:05:56.179Z,17.24
2023-04-22T12:08:25.316Z,17.17
2023-04-22T12:11:01.539Z,17.15
2023-04-22T12:13:30.876Z,17.12
2023-04-22T12:16:00.475Z,17.01
2023-04-22T12:18:34.378Z,17.18
2023-04-22T12:21:02.778Z,17.29
2023-04-22T12:23:29.849Z,17.23
2023-04-22T12:25:56.791Z,17.23
2023-04-22T12:28:25.824Z,17.23
2023-04-22T12:30:53.185Z,17.11
2023-04-22T12:33:20.056Z,16.89
2023-04-22T12:35:49.040Z,16.98
2023-04-22T12:38:16.329Z,16.85
2023-04-22T12:40:43.332Z,16.99
2023-04-22T12:43:10.329Z,17.35
2023-04-22T12:45:37.270Z,17.62
2023-04-22T12:48:04.362Z,17.61
2023-04-22T12:50:31.474Z,17.43
2023-04-22T12:52:58.457Z,17.52
2023-04-22T12:55:26.297Z,17.62
2023-04-22T12:57:53.249Z,17.50
2023-04-22T13:00:20.961Z,17.34
2023-04-22T13:02:49.322Z,16.95
2023-04-22T13:05:17.508Z,16.84
2023-04-22T13:07:48.541Z,17.05
2023-04-22T13:10:22.503Z,17.18
2023-04-22T13:12:49.311Z,16.96
2023-04-22T13:15:18.425Z,16.93
2023-04-22T13:17:47.173Z,17.00
2023-04-22T13:20:16.523Z,17.03
2023-04-22T13:22:43.483Z,17.15
2023-04-22T13:25:11.056Z,17.46
2023-04-22T13:27:38.051Z,17.81
2023-04-22T13:30:07.744Z,17.97
2023-04-22T13:32:34.931Z,18.02
2023-04-22T13:35:03.193Z,17.93
2023-04-22T13:37:30.300Z,17.97
2023-04-22T13:39:57.227Z,18.08
2023-04-22T13:42:24.196Z,18.26
2023-04-22T13:44:51.165Z,18.45
2023-04-22T13:47:18.128Z,18.27
2023-04-22T13:49:45.045Z,17.89
2023-04-22T13:52:12.010Z,17.49
2023-04-22T13:54:38.931Z,17.76
2023-04-22T13:57:05.992Z,17.72
2023-04-22T13:59:35.975Z,17.79
2023-04-22T14:02:03.009Z,18.13
2023-04-22T14:04:30.051Z,18.20
2023-04-22T14:06:57.106Z,18.32
2023-04-22T14:09:24.048Z,18.42
2023-04-22T14:11:51.102Z,18.38
2023-04-22T14:14:18.086Z,18.55
2023-04-22T14:16:45.054Z,18.68
2023-04-22T14:19:12.537Z,18.70
2023-04-22T14:21:39.471Z,18.78
2023-04-22T14:24:06.549Z,18.52
2023-04-22T14:26:33.510Z,18.53
2023-04-22T14:29:00.440Z,18.42
2023-04-22T14:31:27.525Z,18.46
2023-04-22T14:33:54.689Z,18.69
2023-04-22T14:36:21.601Z,19.16
2023-04-22T14:38:48.584Z,19.09
2023-04-22T14:41:15.749Z,19.02
2023-04-22T14:43:42.769Z,18.68
2023-04-22T14:46:09.762Z,18.64
2023-04-22T14:48:39.466Z,18.60
2023-04-22T14:51:06.501Z,18.46
2023-04-22T14:53:34.158Z,18.22
2023-04-22T14:56:01.317Z,18.28
2023-04-22T14:58:31.850Z,18.11
2023-04-22T15:01:00.301Z,17.73
2023-04-22T15:03:27.521Z,17.38
2023-04-22T15:05:55.637Z,17.22
2023-04-22T15:08:25.357Z,16.95
2023-04-22T15:10:52.379Z,16.71
2023-04-22T15:13:20.117Z,16.60
2023-04-22T15:15:47.426Z,16.60
2023-04-22T15:18:14.698Z,16.63
2023-04-22T15:20:41.756Z,16.73
2023-04-22T15:23:08.749Z,16.82
2023-04-22T15:25:35.961Z,17.05
2023-04-22T15:28:03.350Z,17.25
2023-04-22T15:30:30.522Z,17.45
2023-04-22T15:32:57.613Z,17.59
2023-04-22T15:35:24.748Z,17.72
2023-04-22T15:37:52.885Z,17.85
2023-04-22T15:40:19.964Z,18.08
2023-04-22T15:42:46.922Z,18.23
2023-04-22T15:45:13.815Z,18.27
2023-04-22T15:47:41.840Z,18.41
2023-04-22T15:50:09.780Z,18.38
2023-04-22T15:52:38.130Z,18.59
2023-04-22T15:55:08.578Z,18.31
2023-04-22T15:57:35.828Z,17.88
2023-04-22T16:00:14.140Z,17.59
2023-04-22T16:02:42.879Z,17.58
2023-04-22T16:05:12.188Z,17.39
2023-04-22T16:07:39.687Z,17.18
2023-04-22T16:10:07.439Z,17.29
2023-04-22T16:12:34.666Z,17.34
2023-04-22T16:15:02.123Z,17.63
2023-04-22T16:17:29.959Z,17.77
2023-04-22T16:19:57.096Z,17.72
2023-04-22T16:22:24.175Z,17.75
2023-04-22T16:24:51.341Z,17.97
2023-04-22T16:27:19.448Z,17.69
2023-04-22T16:29:46.652Z,17.48
2023-04-22T16:32:13.743Z,17.42
2023-04-22T16:34:40.696Z,17.44
2023-04-22T16:37:08.874Z,17.44
2023-04-22T16:39:35.755Z,17.18
2023-04-22T16:42:03.230Z,16.80
2023-04-22T16:44:30.252Z,16.69
2023-04-22T16:46:57.370Z,16.53
2023-04-22T16:49:24.250Z,16.28
2023-04-22T16:51:51.393Z,16.03
2023-04-22T16:54:18.423Z,15.79
2023-04-22T16:56:45.363Z,15.49
2023-04-22T16:59:12.310Z,15.32
2023-04-22T17:01:41.053Z,14.99
2023-04-22T17:04:08.907Z,14.82
